sensor_id;sensor_type;location;lat;lon;timestamp;temperature;humidity
45537;DHT22;31262;51.978;5.924;2022-08-11T00:02:25;25.90;43.00
45537;DHT22;31262;51.978;5.924;2022-08-11T00:04:51;26.00;43.10
45537;DHT22;31262;51.978;5.924;2022-08-11T00:07:19;25.80;43.30
45537;DHT22;31262;51.978;5.924;2022-08-11T00:09:45;25.80;43.40
45537;DHT22;31262;51.978;5.924;2022-08-11T00:12:14;25.80;43.40
45537;DHT22;31262;51.978;5.924;2022-08-11T00:14:40;25.80;43.40
45537;DHT22;31262;51.978;5.924;2022-08-11T00:17:08;25.70;43.50
45537;DHT22;31262;51.978;5.924;2022-08-11T00:19:38;25.70;43.80
45537;DHT22;31262;51.978;5.924;2022-08-11T00:22:06;25.70;43.70
45537;DHT22;31262;51.978;5.924;2022-08-11T00:24:38;25.70;43.80
45537;DHT22;31262;51.978;5.924;2022-08-11T00:27:05;25.70;43.80
45537;DHT22;31262;51.978;5.924;2022-08-11T00:29:31;25.60;43.90
45537;DHT22;31262;51.978;5.924;2022-08-11T00:31:59;25.60;44.00
45537;DHT22;31262;51.978;5.924;2022-08-11T00:34:28;25.60;44.10
45537;DHT22;31262;51.978;5.924;2022-08-11T00:36:59;25.60;44.20
45537;DHT22;31262;51.978;5.924;2022-08-11T00:39:25;25.50;44.30
45537;DHT22;31262;51.978;5.924;2022-08-11T00:42:17;25.50;44.40
45537;DHT22;31262;51.978;5.924;2022-08-11T00:50:28;25.50;44.70
45537;DHT22;31262;51.978;5.924;2022-08-11T00:53:35;25.40;44.80
45537;DHT22;31262;51.978;5.924;2022-08-11T01:01:58;25.30;44.90
45537;DHT22;31262;51.978;5.924;2022-08-11T01:25:37;25.00;45.80
45537;DHT22;31262;51.978;5.924;2022-08-11T01:45:51;24.80;46.40
45537;DHT22;31262;51.978;5.924;2022-08-11T01:51:22;24.80;46.60
45537;DHT22;31262;51.978;5.924;2022-08-11T01:59:51;24.60;46.60
45537;DHT22;31262;51.978;5.924;2022-08-11T02:08:23;24.60;47.10
45537;DHT22;31262;51.978;5.924;2022-08-11T02:14:23;24.60;47.40
45537;DHT22;31262;51.978;5.924;2022-08-11T02:25:55;24.50;47.50
45537;DHT22;31262;51.978;5.924;2022-08-11T02:28:30;24.40;47.60
45537;DHT22;31262;51.978;5.924;2022-08-11T02:31:11;24.40;47.80
45537;DHT22;31262;51.978;5.924;2022-08-11T02:36:58;24.30;48.00
45537;DHT22;31262;51.978;5.924;2022-08-11T02:39:36;24.20;48.10
45537;DHT22;31262;51.978;5.924;2022-08-11T02:42:20;24.20;48.20
45537;DHT22;31262;51.978;5.924;2022-08-11T02:50:24;24.30;48.40
45537;DHT22;31262;51.978;5.924;2022-08-11T02:52:54;24.40;48.20
45537;DHT22;31262;51.978;5.924;2022-08-11T02:55:31;24.30;48.60
45537;DHT22;31262;51.978;5.924;2022-08-11T02:58:15;24.30;48.40
45537;DHT22;31262;51.978;5.924;2022-08-11T03:09:05;24.30;48.60
45537;DHT22;31262;51.978;5.924;2022-08-11T03:11:55;24.30;48.50
45537;DHT22;31262;51.978;5.924;2022-08-11T03:14:53;24.30;48.40
45537;DHT22;31262;51.978;5.924;2022-08-11T03:26:00;24.20;48.90
45537;DHT22;31262;51.978;5.924;2022-08-11T03:29:03;24.20;49.00
45537;DHT22;31262;51.978;5.924;2022-08-11T03:31:50;24.20;48.90
45537;DHT22;31262;51.978;5.924;2022-08-11T03:34:21;24.20;49.00
45537;DHT22;31262;51.978;5.924;2022-08-11T03:42:45;24.20;48.90
45537;DHT22;31262;51.978;5.924;2022-08-11T03:53:19;24.20;49.20
45537;DHT22;31262;51.978;5.924;2022-08-11T04:24:33;23.70;49.90
45537;DHT22;31262;51.978;5.924;2022-08-11T04:41:19;23.90;50.10
45537;DHT22;31262;51.978;5.924;2022-08-11T04:53:33;23.90;50.20
45537;DHT22;31262;51.978;5.924;2022-08-11T04:56:25;23.80;50.40
45537;DHT22;31262;51.978;5.924;2022-08-11T05:05:18;23.80;50.50
45537;DHT22;31262;51.978;5.924;2022-08-11T05:13:46;23.80;50.60
45537;DHT22;31262;51.978;5.924;2022-08-11T05:16:44;23.80;50.50
45537;DHT22;31262;51.978;5.924;2022-08-11T05:19:31;23.80;50.60
45537;DHT22;31262;51.978;5.924;2022-08-11T05:22:18;23.70;51.00
45537;DHT22;31262;51.978;5.924;2022-08-11T05:25:09;23.70;50.90
45537;DHT22;31262;51.978;5.924;2022-08-11T05:30:45;23.60;51.10
45537;DHT22;31262;51.978;5.924;2022-08-11T05:33:37;23.60;51.10
45537;DHT22;31262;51.978;5.924;2022-08-11T05:40:28;23.50;50.90
45537;DHT22;31262;51.978;5.924;2022-08-11T05:43:11;23.50;51.20
45537;DHT22;31262;51.978;5.924;2022-08-11T05:45:59;23.50;51.40
45537;DHT22;31262;51.978;5.924;2022-08-11T05:48:44;23.50;51.30
45537;DHT22;31262;51.978;5.924;2022-08-11T05:51:40;23.50;51.20
45537;DHT22;31262;51.978;5.924;2022-08-11T05:54:26;23.60;51.10
45537;DHT22;31262;51.978;5.924;2022-08-11T05:57:22;23.50;51.80
45537;DHT22;31262;51.978;5.924;2022-08-11T05:59:58;23.60;51.10
45537;DHT22;31262;51.978;5.924;2022-08-11T06:02:24;23.70;51.10
45537;DHT22;31262;51.978;5.924;2022-08-11T06:04:59;23.70;51.10
45537;DHT22;31262;51.978;5.924;2022-08-11T06:07:29;23.80;50.80
45537;DHT22;31262;51.978;5.924;2022-08-11T06:09:58;23.80;50.60
45537;DHT22;31262;51.978;5.924;2022-08-11T06:12:25;23.70;50.40
45537;DHT22;31262;51.978;5.924;2022-08-11T06:14:56;23.80;50.40
45537;DHT22;31262;51.978;5.924;2022-08-11T06:17:30;23.80;50.20
45537;DHT22;31262;51.978;5.924;2022-08-11T06:20:05;23.80;50.00
45537;DHT22;31262;51.978;5.924;2022-08-11T06:22:32;23.90;49.80
45537;DHT22;31262;51.978;5.924;2022-08-11T06:25:02;23.90;49.60
45537;DHT22;31262;51.978;5.924;2022-08-11T06:27:31;24.00;49.50
45537;DHT22;31262;51.978;5.924;2022-08-11T06:29:58;24.00;49.50
45537;DHT22;31262;51.978;5.924;2022-08-11T06:32:50;23.80;49.60
45537;DHT22;31262;51.978;5.924;2022-08-11T06:35:37;23.90;49.30
45537;DHT22;31262;51.978;5.924;2022-08-11T06:38:25;24.00;49.10
45537;DHT22;31262;51.978;5.924;2022-08-11T06:41:02;24.00;49.00
45537;DHT22;31262;51.978;5.924;2022-08-11T06:43:59;24.00;48.90
45537;DHT22;31262;51.978;5.924;2022-08-11T06:46:32;24.10;49.10
45537;DHT22;31262;51.978;5.924;2022-08-11T06:49:03;24.10;49.00
45537;DHT22;31262;51.978;5.924;2022-08-11T06:51:30;24.20;48.80
45537;DHT22;31262;51.978;5.924;2022-08-11T06:53:57;24.30;48.70
45537;DHT22;31262;51.978;5.924;2022-08-11T06:56:28;24.30;48.60
45537;DHT22;31262;51.978;5.924;2022-08-11T06:59:15;24.10;48.80
45537;DHT22;31262;51.978;5.924;2022-08-11T07:04:47;24.40;48.70
45537;DHT22;31262;51.978;5.924;2022-08-11T07:13:15;24.60;48.80
45537;DHT22;31262;51.978;5.924;2022-08-11T07:16:01;24.60;48.60
45537;DHT22;31262;51.978;5.924;2022-08-11T07:18:31;24.60;48.70
45537;DHT22;31262;51.978;5.924;2022-08-11T07:21:30;24.70;48.60
45537;DHT22;31262;51.978;5.924;2022-08-11T07:24:22;24.80;48.50
45537;DHT22;31262;51.978;5.924;2022-08-11T07:27:12;24.80;48.50
45537;DHT22;31262;51.978;5.924;2022-08-11T07:29:57;24.90;48.20
45537;DHT22;31262;51.978;5.924;2022-08-11T07:32:28;25.00;48.10
45537;DHT22;31262;51.978;5.924;2022-08-11T07:35:00;25.20;48.00
45537;DHT22;31262;51.978;5.924;2022-08-11T07:37:30;25.20;47.70
45537;DHT22;31262;51.978;5.924;2022-08-11T07:39:58;25.40;47.50
45537;DHT22;31262;51.978;5.924;2022-08-11T07:42:28;25.40;47.30
45537;DHT22;31262;51.978;5.924;2022-08-11T07:44:55;25.60;47.30
45537;DHT22;31262;51.978;5.924;2022-08-11T07:47:41;25.80;47.00
45537;DHT22;31262;51.978;5.924;2022-08-11T07:50:26;25.90;46.80
45537;DHT22;31262;51.978;5.924;2022-08-11T07:53:11;26.10;46.60
45537;DHT22;31262;51.978;5.924;2022-08-11T07:55:37;26.20;46.50
45537;DHT22;31262;51.978;5.924;2022-08-11T07:58:03;26.40;46.00
45537;DHT22;31262;51.978;5.924;2022-08-11T08:00:53;26.50;45.80
45537;DHT22;31262;51.978;5.924;2022-08-11T08:03:38;26.70;45.60
45537;DHT22;31262;51.978;5.924;2022-08-11T08:06:25;26.80;45.60
45537;DHT22;31262;51.978;5.924;2022-08-11T08:09:09;26.90;44.90
45537;DHT22;31262;51.978;5.924;2022-08-11T08:11:56;27.10;44.50
45537;DHT22;31262;51.978;5.924;2022-08-11T08:14:40;27.30;44.60
45537;DHT22;31262;51.978;5.924;2022-08-11T08:17:25;27.40;44.50
45537;DHT22;31262;51.978;5.924;2022-08-11T08:20:13;27.50;44.00
45537;DHT22;31262;51.978;5.924;2022-08-11T08:22:41;27.70;43.70
45537;DHT22;31262;51.978;5.924;2022-08-11T08:25:07;27.90;43.60
45537;DHT22;31262;51.978;5.924;2022-08-11T08:27:34;28.10;43.10
45537;DHT22;31262;51.978;5.924;2022-08-11T08:30:02;28.20;42.60
45537;DHT22;31262;51.978;5.924;2022-08-11T08:32:47;28.40;42.40
45537;DHT22;31262;51.978;5.924;2022-08-11T08:35:14;28.50;42.70
45537;DHT22;31262;51.978;5.924;2022-08-11T08:37:40;28.60;42.40
45537;DHT22;31262;51.978;5.924;2022-08-11T08:40:07;28.80;42.10
45537;DHT22;31262;51.978;5.924;2022-08-11T08:42:38;28.90;42.10
45537;DHT22;31262;51.978;5.924;2022-08-11T08:45:11;29.10;41.40
45537;DHT22;31262;51.978;5.924;2022-08-11T08:47:40;29.20;41.30
45537;DHT22;31262;51.978;5.924;2022-08-11T08:50:11;29.50;40.90
45537;DHT22;31262;51.978;5.924;2022-08-11T08:52:42;29.60;40.60
45537;DHT22;31262;51.978;5.924;2022-08-11T08:55:13;29.70;40.30
45537;DHT22;31262;51.978;5.924;2022-08-11T08:57:43;29.90;40.50
45537;DHT22;31262;51.978;5.924;2022-08-11T09:00:10;30.00;40.00
45537;DHT22;31262;51.978;5.924;2022-08-11T09:02:38;30.10;39.80
45537;DHT22;31262;51.978;5.924;2022-08-11T09:05:05;30.30;39.30
45537;DHT22;31262;51.978;5.924;2022-08-11T09:07:36;30.40;38.80
45537;DHT22;31262;51.978;5.924;2022-08-11T09:10:04;30.50;38.50
45537;DHT22;31262;51.978;5.924;2022-08-11T09:12:31;30.70;38.10
45537;DHT22;31262;51.978;5.924;2022-08-11T09:14:59;30.80;38.10
45537;DHT22;31262;51.978;5.924;2022-08-11T09:17:31;30.90;37.60
45537;DHT22;31262;51.978;5.924;2022-08-11T09:20:03;31.00;37.70
45537;DHT22;31262;51.978;5.924;2022-08-11T09:22:34;31.10;37.90
45537;DHT22;31262;51.978;5.924;2022-08-11T09:25:20;31.20;37.30
45537;DHT22;31262;51.978;5.924;2022-08-11T09:28:09;31.30;37.30
45537;DHT22;31262;51.978;5.924;2022-08-11T09:30:36;31.30;37.40
45537;DHT22;31262;51.978;5.924;2022-08-11T09:33:03;31.40;37.20
45537;DHT22;31262;51.978;5.924;2022-08-11T09:35:33;31.50;36.70
45537;DHT22;31262;51.978;5.924;2022-08-11T09:38:00;31.70;36.40
45537;DHT22;31262;51.978;5.924;2022-08-11T09:40:46;31.80;36.00
45537;DHT22;31262;51.978;5.924;2022-08-11T09:43:14;31.90;36.00
45537;DHT22;31262;51.978;5.924;2022-08-11T09:46:00;32.00;35.90
45537;DHT22;31262;51.978;5.924;2022-08-11T09:48:29;32.10;36.20
45537;DHT22;31262;51.978;5.924;2022-08-11T09:50:58;32.20;34.90
45537;DHT22;31262;51.978;5.924;2022-08-11T09:53:25;32.40;34.70
45537;DHT22;31262;51.978;5.924;2022-08-11T09:55:52;32.20;35.10
45537;DHT22;31262;51.978;5.924;2022-08-11T09:58:18;32.40;34.90
45537;DHT22;31262;51.978;5.924;2022-08-11T10:00:47;32.50;34.80
45537;DHT22;31262;51.978;5.924;2022-08-11T10:03:27;32.60;34.80
45537;DHT22;31262;51.978;5.924;2022-08-11T10:06:00;32.80;34.50
45537;DHT22;31262;51.978;5.924;2022-08-11T10:08:46;32.80;34.90
45537;DHT22;31262;51.978;5.924;2022-08-11T10:11:17;32.80;34.60
45537;DHT22;31262;51.978;5.924;2022-08-11T10:13:46;32.80;33.90
45537;DHT22;31262;51.978;5.924;2022-08-11T10:16:34;32.90;33.60
45537;DHT22;31262;51.978;5.924;2022-08-11T10:19:02;33.00;33.30
45537;DHT22;31262;51.978;5.924;2022-08-11T10:23:55;33.20;33.70
45537;DHT22;31262;51.978;5.924;2022-08-11T10:26:42;33.20;33.50
45537;DHT22;31262;51.978;5.924;2022-08-11T10:29:17;33.20;33.20
45537;DHT22;31262;51.978;5.924;2022-08-11T10:32:02;33.30;33.20
45537;DHT22;31262;51.978;5.924;2022-08-11T10:34:48;33.40;32.80
45537;DHT22;31262;51.978;5.924;2022-08-11T10:37:15;33.50;32.60
45537;DHT22;31262;51.978;5.924;2022-08-11T10:39:42;33.60;32.00
45537;DHT22;31262;51.978;5.924;2022-08-11T10:42:09;33.60;32.50
45537;DHT22;31262;51.978;5.924;2022-08-11T10:44:56;33.70;32.20
45537;DHT22;31262;51.978;5.924;2022-08-11T10:47:23;33.80;31.70
45537;DHT22;31262;51.978;5.924;2022-08-11T10:50:12;33.90;32.00
45537;DHT22;31262;51.978;5.924;2022-08-11T10:52:58;33.90;31.90
45537;DHT22;31262;51.978;5.924;2022-08-11T10:55:43;33.90;32.20
45537;DHT22;31262;51.978;5.924;2022-08-11T10:58:29;33.90;32.30
45537;DHT22;31262;51.978;5.924;2022-08-11T11:01:17;33.90;32.20
45537;DHT22;31262;51.978;5.924;2022-08-11T11:04:07;33.90;30.90
45537;DHT22;31262;51.978;5.924;2022-08-11T11:09:36;34.00;31.00
45537;DHT22;31262;51.978;5.924;2022-08-11T11:12:08;34.00;31.10
45537;DHT22;31262;51.978;5.924;2022-08-11T11:14:54;34.10;30.60
45537;DHT22;31262;51.978;5.924;2022-08-11T11:17:45;34.20;30.70
45537;DHT22;31262;51.978;5.924;2022-08-11T11:20:41;34.30;30.70
45537;DHT22;31262;51.978;5.924;2022-08-11T11:39:22;34.70;29.90
45537;DHT22;31262;51.978;5.924;2022-08-11T11:41:51;34.80;29.80
45537;DHT22;31262;51.978;5.924;2022-08-11T11:44:19;34.80;29.60
45537;DHT22;31262;51.978;5.924;2022-08-11T11:46:45;34.80;29.40
45537;DHT22;31262;51.978;5.924;2022-08-11T11:49:13;34.80;29.10
45537;DHT22;31262;51.978;5.924;2022-08-11T11:51:41;34.90;29.00
45537;DHT22;31262;51.978;5.924;2022-08-11T11:54:07;35.00;29.00
45537;DHT22;31262;51.978;5.924;2022-08-11T11:56:35;35.10;28.50
45537;DHT22;31262;51.978;5.924;2022-08-11T11:59:02;35.10;28.20
45537;DHT22;31262;51.978;5.924;2022-08-11T12:01:47;35.20;28.30
45537;DHT22;31262;51.978;5.924;2022-08-11T12:04:14;35.20;29.10
45537;DHT22;31262;51.978;5.924;2022-08-11T12:06:40;35.30;28.10
45537;DHT22;31262;51.978;5.924;2022-08-11T12:09:07;35.10;28.30
45537;DHT22;31262;51.978;5.924;2022-08-11T12:11:37;35.30;27.60
45537;DHT22;31262;51.978;5.924;2022-08-11T12:14:21;35.40;27.60
45537;DHT22;31262;51.978;5.924;2022-08-11T12:16:50;35.40;27.80
45537;DHT22;31262;51.978;5.924;2022-08-11T12:19:18;35.50;28.70
45537;DHT22;31262;51.978;5.924;2022-08-11T12:21:46;35.50;27.60
45537;DHT22;31262;51.978;5.924;2022-08-11T12:24:33;35.40;27.50
45537;DHT22;31262;51.978;5.924;2022-08-11T12:27:17;35.40;27.80
45537;DHT22;31262;51.978;5.924;2022-08-11T12:29:52;35.30;28.30
45537;DHT22;31262;51.978;5.924;2022-08-11T12:32:19;35.30;28.60
45537;DHT22;31262;51.978;5.924;2022-08-11T12:34:46;35.30;28.10
45537;DHT22;31262;51.978;5.924;2022-08-11T12:37:13;35.30;27.80
45537;DHT22;31262;51.978;5.924;2022-08-11T12:39:46;35.30;27.60
45537;DHT22;31262;51.978;5.924;2022-08-11T12:42:33;35.40;27.00
45537;DHT22;31262;51.978;5.924;2022-08-11T12:45:18;35.40;27.00
45537;DHT22;31262;51.978;5.924;2022-08-11T12:48:02;35.50;27.10
45537;DHT22;31262;51.978;5.924;2022-08-11T12:50:53;35.60;27.50
45537;DHT22;31262;51.978;5.924;2022-08-11T12:53:42;35.50;27.80
45537;DHT22;31262;51.978;5.924;2022-08-11T12:56:11;35.40;28.00
45537;DHT22;31262;51.978;5.924;2022-08-11T12:58:56;35.40;27.50
45537;DHT22;31262;51.978;5.924;2022-08-11T13:01:42;35.40;27.90
45537;DHT22;31262;51.978;5.924;2022-08-11T13:04:28;35.40;28.60
45537;DHT22;31262;51.978;5.924;2022-08-11T13:07:15;35.40;27.90
45537;DHT22;31262;51.978;5.924;2022-08-11T13:09:42;35.40;27.70
45537;DHT22;31262;51.978;5.924;2022-08-11T13:12:08;35.50;27.70
45537;DHT22;31262;51.978;5.924;2022-08-11T13:14:53;35.40;28.30
45537;DHT22;31262;51.978;5.924;2022-08-11T13:17:20;35.30;28.40
45537;DHT22;31262;51.978;5.924;2022-08-11T13:19:47;35.20;28.60
45537;DHT22;31262;51.978;5.924;2022-08-11T13:22:16;35.20;28.00
45537;DHT22;31262;51.978;5.924;2022-08-11T13:24:43;35.20;28.40
45537;DHT22;31262;51.978;5.924;2022-08-11T13:27:09;35.10;28.20
45537;DHT22;31262;51.978;5.924;2022-08-11T13:29:40;35.10;28.50
45537;DHT22;31262;51.978;5.924;2022-08-11T13:32:07;35.10;29.00
45537;DHT22;31262;51.978;5.924;2022-08-11T13:34:33;34.90;29.50
45537;DHT22;31262;51.978;5.924;2022-08-11T13:37:07;34.80;28.20
45537;DHT22;31262;51.978;5.924;2022-08-11T13:39:35;34.90;27.50
45537;DHT22;31262;51.978;5.924;2022-08-11T13:42:02;34.90;27.90
45537;DHT22;31262;51.978;5.924;2022-08-11T13:44:30;34.90;27.70
45537;DHT22;31262;51.978;5.924;2022-08-11T13:47:00;35.00;27.70
45537;DHT22;31262;51.978;5.924;2022-08-11T13:49:27;35.00;28.20
45537;DHT22;31262;51.978;5.924;2022-08-11T13:51:54;35.00;28.80
45537;DHT22;31262;51.978;5.924;2022-08-11T13:54:22;35.00;27.40
45537;DHT22;31262;51.978;5.924;2022-08-11T13:56:53;35.00;28.10
45537;DHT22;31262;51.978;5.924;2022-08-11T13:59:20;35.00;29.00
45537;DHT22;31262;51.978;5.924;2022-08-11T14:01:50;34.80;28.90
45537;DHT22;31262;51.978;5.924;2022-08-11T14:06:53;34.70;29.30
45537;DHT22;31262;51.978;5.924;2022-08-11T14:09:29;34.60;29.30
45537;DHT22;31262;51.978;5.924;2022-08-11T14:12:00;34.50;28.60
45537;DHT22;31262;51.978;5.924;2022-08-11T14:14:51;34.50;28.40
45537;DHT22;31262;51.978;5.924;2022-08-11T14:17:19;34.60;28.20
45537;DHT22;31262;51.978;5.924;2022-08-11T14:19:50;34.50;28.70
45537;DHT22;31262;51.978;5.924;2022-08-11T14:22:18;34.60;28.30
45537;DHT22;31262;51.978;5.924;2022-08-11T14:24:46;34.60;29.10
45537;DHT22;31262;51.978;5.924;2022-08-11T14:27:15;34.60;29.10
45537;DHT22;31262;51.978;5.924;2022-08-11T14:29:42;34.40;29.10
45537;DHT22;31262;51.978;5.924;2022-08-11T14:32:13;34.50;29.10
45537;DHT22;31262;51.978;5.924;2022-08-11T14:34:41;34.50;29.30
45537;DHT22;31262;51.978;5.924;2022-08-11T14:37:07;34.40;29.40
45537;DHT22;31262;51.978;5.924;2022-08-11T14:39:45;34.10;29.60
45537;DHT22;31262;51.978;5.924;2022-08-11T14:42:16;33.90;29.80
45537;DHT22;31262;51.978;5.924;2022-08-11T14:45:06;34.00;30.50
45537;DHT22;31262;51.978;5.924;2022-08-11T14:47:53;33.90;30.20
45537;DHT22;31262;51.978;5.924;2022-08-11T14:50:22;33.80;30.60
45537;DHT22;31262;51.978;5.924;2022-08-11T14:53:00;33.80;29.70
45537;DHT22;31262;51.978;5.924;2022-08-11T14:55:28;33.90;30.50
45537;DHT22;31262;51.978;5.924;2022-08-11T14:58:20;33.80;29.10
45537;DHT22;31262;51.978;5.924;2022-08-11T15:00:52;33.80;29.40
45537;DHT22;31262;51.978;5.924;2022-08-11T15:03:19;33.80;29.40
45537;DHT22;31262;51.978;5.924;2022-08-11T15:05:52;33.80;29.70
45537;DHT22;31262;51.978;5.924;2022-08-11T15:08:19;33.80;29.50
45537;DHT22;31262;51.978;5.924;2022-08-11T15:10:47;33.70;29.50
45537;DHT22;31262;51.978;5.924;2022-08-11T15:13:16;33.70;30.00
45537;DHT22;31262;51.978;5.924;2022-08-11T15:15:43;33.60;30.30
45537;DHT22;31262;51.978;5.924;2022-08-11T15:18:28;33.60;29.50
45537;DHT22;31262;51.978;5.924;2022-08-11T15:20:54;33.60;29.80
45537;DHT22;31262;51.978;5.924;2022-08-11T15:23:39;33.50;29.90
45537;DHT22;31262;51.978;5.924;2022-08-11T15:26:32;33.40;30.80
45537;DHT22;31262;51.978;5.924;2022-08-11T15:29:24;33.40;29.80
45537;DHT22;31262;51.978;5.924;2022-08-11T15:32:11;33.40;29.60
45537;DHT22;31262;51.978;5.924;2022-08-11T15:34:50;33.30;29.90
45537;DHT22;31262;51.978;5.924;2022-08-11T15:37:37;33.40;29.70
45537;DHT22;31262;51.978;5.924;2022-08-11T15:40:18;33.30;30.00
45537;DHT22;31262;51.978;5.924;2022-08-11T15:43:14;33.40;29.50
45537;DHT22;31262;51.978;5.924;2022-08-11T15:46:05;33.40;29.70
45537;DHT22;31262;51.978;5.924;2022-08-11T15:51:09;33.50;29.40
45537;DHT22;31262;51.978;5.924;2022-08-11T15:53:46;33.60;29.20
45537;DHT22;31262;51.978;5.924;2022-08-11T15:56:15;33.70;29.20
45537;DHT22;31262;51.978;5.924;2022-08-11T15:58:49;33.70;29.00
45537;DHT22;31262;51.978;5.924;2022-08-11T16:01:37;33.70;29.20
45537;DHT22;31262;51.978;5.924;2022-08-11T16:04:27;33.70;29.00
45537;DHT22;31262;51.978;5.924;2022-08-11T16:12:34;33.60;28.60
45537;DHT22;31262;51.978;5.924;2022-08-11T16:15:05;33.60;28.70
45537;DHT22;31262;51.978;5.924;2022-08-11T16:17:53;33.50;28.50
45537;DHT22;31262;51.978;5.924;2022-08-11T16:20:22;33.50;28.90
45537;DHT22;31262;51.978;5.924;2022-08-11T16:22:50;33.50;28.90
45537;DHT22;31262;51.978;5.924;2022-08-11T16:25:19;33.60;28.80
45537;DHT22;31262;51.978;5.924;2022-08-11T16:27:49;33.50;28.80
45537;DHT22;31262;51.978;5.924;2022-08-11T16:30:15;33.40;28.60
45537;DHT22;31262;51.978;5.924;2022-08-11T16:32:45;33.30;29.00
45537;DHT22;31262;51.978;5.924;2022-08-11T16:35:16;33.30;29.50
45537;DHT22;31262;51.978;5.924;2022-08-11T16:38:05;33.20;29.20
45537;DHT22;31262;51.978;5.924;2022-08-11T16:40:52;33.10;29.00
45537;DHT22;31262;51.978;5.924;2022-08-11T16:43:21;33.00;29.20
45537;DHT22;31262;51.978;5.924;2022-08-11T16:46:07;33.00;29.70
45537;DHT22;31262;51.978;5.924;2022-08-11T16:48:52;33.00;29.50
45537;DHT22;31262;51.978;5.924;2022-08-11T16:51:19;33.00;29.80
45537;DHT22;31262;51.978;5.924;2022-08-11T16:53:47;32.90;29.60
45537;DHT22;31262;51.978;5.924;2022-08-11T16:56:24;32.90;30.00
45537;DHT22;31262;51.978;5.924;2022-08-11T16:58:54;32.80;30.10
45537;DHT22;31262;51.978;5.924;2022-08-11T17:01:44;32.70;30.60
45537;DHT22;31262;51.978;5.924;2022-08-11T17:04:27;32.60;31.70
45537;DHT22;31262;51.978;5.924;2022-08-11T17:07:15;32.60;31.40
45537;DHT22;31262;51.978;5.924;2022-08-11T17:10:04;32.40;31.60
45537;DHT22;31262;51.978;5.924;2022-08-11T17:12:49;32.40;31.40
45537;DHT22;31262;51.978;5.924;2022-08-11T17:15:40;32.30;31.00
45537;DHT22;31262;51.978;5.924;2022-08-11T17:18:25;32.30;31.60
45537;DHT22;31262;51.978;5.924;2022-08-11T17:23:40;32.20;31.50
45537;DHT22;31262;51.978;5.924;2022-08-11T17:26:20;32.20;31.90
45537;DHT22;31262;51.978;5.924;2022-08-11T17:28:51;32.20;31.30
45537;DHT22;31262;51.978;5.924;2022-08-11T17:31:22;32.20;30.70
45537;DHT22;31262;51.978;5.924;2022-08-11T17:34:08;32.20;30.50
45537;DHT22;31262;51.978;5.924;2022-08-11T17:36:54;32.20;30.50
45537;DHT22;31262;51.978;5.924;2022-08-11T17:39:25;32.20;30.10
45537;DHT22;31262;51.978;5.924;2022-08-11T17:41:54;32.20;30.10
45537;DHT22;31262;51.978;5.924;2022-08-11T17:44:39;32.20;30.30
45537;DHT22;31262;51.978;5.924;2022-08-11T17:47:25;32.10;30.10
45537;DHT22;31262;51.978;5.924;2022-08-11T17:50:10;32.10;30.50
45537;DHT22;31262;51.978;5.924;2022-08-11T17:52:38;32.00;30.00
45537;DHT22;31262;51.978;5.924;2022-08-11T17:55:24;32.00;30.10
45537;DHT22;31262;51.978;5.924;2022-08-11T17:58:09;32.00;30.70
45537;DHT22;31262;51.978;5.924;2022-08-11T18:00:55;32.00;31.60
45537;DHT22;31262;51.978;5.924;2022-08-11T18:03:22;32.00;30.40
45537;DHT22;31262;51.978;5.924;2022-08-11T18:06:00;32.00;30.70
45537;DHT22;31262;51.978;5.924;2022-08-11T18:08:29;32.00;30.20
45537;DHT22;31262;51.978;5.924;2022-08-11T18:11:16;32.00;30.20
45537;DHT22;31262;51.978;5.924;2022-08-11T18:14:06;32.00;30.70
45537;DHT22;31262;51.978;5.924;2022-08-11T18:16:51;31.90;30.30
45537;DHT22;31262;51.978;5.924;2022-08-11T18:19:35;31.80;30.60
45537;DHT22;31262;51.978;5.924;2022-08-11T18:22:22;31.80;31.00
45537;DHT22;31262;51.978;5.924;2022-08-11T18:25:09;31.80;30.80
45537;DHT22;31262;51.978;5.924;2022-08-11T18:27:55;31.70;31.00
45537;DHT22;31262;51.978;5.924;2022-08-11T18:30:43;31.70;31.30
45537;DHT22;31262;51.978;5.924;2022-08-11T18:33:35;31.60;30.80
45537;DHT22;31262;51.978;5.924;2022-08-11T18:36:25;31.60;30.90
45537;DHT22;31262;51.978;5.924;2022-08-11T18:39:11;31.60;31.60
45537;DHT22;31262;51.978;5.924;2022-08-11T18:41:58;31.50;30.70
45537;DHT22;31262;51.978;5.924;2022-08-11T18:44:46;31.50;31.60
45537;DHT22;31262;51.978;5.924;2022-08-11T18:47:32;31.40;31.90
45537;DHT22;31262;51.978;5.924;2022-08-11T18:50:18;31.40;31.90
45537;DHT22;31262;51.978;5.924;2022-08-11T18:53:06;31.30;31.60
45537;DHT22;31262;51.978;5.924;2022-08-11T18:55:51;31.30;31.60
45537;DHT22;31262;51.978;5.924;2022-08-11T18:58:40;31.20;31.60
45537;DHT22;31262;51.978;5.924;2022-08-11T19:01:27;31.20;32.00
45537;DHT22;31262;51.978;5.924;2022-08-11T19:04:12;31.10;32.20
45537;DHT22;31262;51.978;5.924;2022-08-11T19:06:57;31.00;32.10
45537;DHT22;31262;51.978;5.924;2022-08-11T19:09:44;31.00;31.80
45537;DHT22;31262;51.978;5.924;2022-08-11T19:12:37;30.90;32.70
45537;DHT22;31262;51.978;5.924;2022-08-11T19:15:23;30.90;32.30
45537;DHT22;31262;51.978;5.924;2022-08-11T19:18:11;30.80;33.20
45537;DHT22;31262;51.978;5.924;2022-08-11T19:20:58;30.70;33.80
45537;DHT22;31262;51.978;5.924;2022-08-11T19:23:45;30.70;33.40
45537;DHT22;31262;51.978;5.924;2022-08-11T19:26:31;30.70;33.00
45537;DHT22;31262;51.978;5.924;2022-08-11T19:29:16;30.50;32.90
45537;DHT22;31262;51.978;5.924;2022-08-11T19:32:02;30.40;33.10
45537;DHT22;31262;51.978;5.924;2022-08-11T19:34:47;30.40;32.90
45537;DHT22;31262;51.978;5.924;2022-08-11T19:37:33;30.40;33.10
45537;DHT22;31262;51.978;5.924;2022-08-11T19:40:19;30.30;32.80
45537;DHT22;31262;51.978;5.924;2022-08-11T19:43:04;30.30;33.10
45537;DHT22;31262;51.978;5.924;2022-08-11T19:45:55;30.20;32.90
45537;DHT22;31262;51.978;5.924;2022-08-11T19:48:42;30.10;33.00
45537;DHT22;31262;51.978;5.924;2022-08-11T19:51:28;30.10;33.10
45537;DHT22;31262;51.978;5.924;2022-08-11T19:54:13;30.00;33.40
45537;DHT22;31262;51.978;5.924;2022-08-11T19:56:59;30.00;33.80
45537;DHT22;31262;51.978;5.924;2022-08-11T19:59:44;29.90;33.40
45537;DHT22;31262;51.978;5.924;2022-08-11T20:02:28;29.90;33.80
45537;DHT22;31262;51.978;5.924;2022-08-11T20:05:13;29.80;33.70
45537;DHT22;31262;51.978;5.924;2022-08-11T20:07:58;29.80;33.50
45537;DHT22;31262;51.978;5.924;2022-08-11T20:10:44;29.70;33.80
45537;DHT22;31262;51.978;5.924;2022-08-11T20:13:30;29.60;33.80
45537;DHT22;31262;51.978;5.924;2022-08-11T20:16:18;29.60;33.90
45537;DHT22;31262;51.978;5.924;2022-08-11T20:19:03;29.50;34.00
45537;DHT22;31262;51.978;5.924;2022-08-11T20:21:48;29.40;34.20
45537;DHT22;31262;51.978;5.924;2022-08-11T20:24:34;29.30;34.20
45537;DHT22;31262;51.978;5.924;2022-08-11T20:27:19;29.20;34.50